createdAt,value
2022-11-09T00:01:29.360Z,9.90
2022-11-09T00:08:37.676Z,10.88
2022-11-09T00:13:41.572Z,10.81
2022-11-09T00:18:47.508Z,10.83
2022-11-09T00:23:49.694Z,10.75
2022-11-09T00:28:51.361Z,10.73
2022-11-09T00:33:55.647Z,10.74
2022-11-09T00:39:00.367Z,10.73
2022-11-09T00:44:02.052Z,10.71
2022-11-09T00:49:04.033Z,10.66
2022-11-09T00:54:09.236Z,10.68
2022-11-09T00:59:11.645Z,10.70
2022-11-09T01:04:14.065Z,10.69
2022-11-09T01:09:15.905Z,10.67
2022-11-09T01:14:17.881Z,10.68
2022-11-09T01:19:19.548Z,10.71
2022-11-09T01:24:21.290Z,10.71
2022-11-09T01:29:22.951Z,10.71
2022-11-09T01:34:25.022Z,10.75
2022-11-09T01:39:27.072Z,10.74
2022-11-09T01:44:30.349Z,10.72
2022-11-09T01:49:34.860Z,10.70
2022-11-09T01:54:44.206Z,10.71
2022-11-09T01:59:52.561Z,10.73
2022-11-09T02:05:01.996Z,10.71
2022-11-09T02:10:22.665Z,10.75
2022-11-09T02:15:25.814Z,10.73
2022-11-09T02:20:28.555Z,10.70
2022-11-09T02:25:30.316Z,10.71
2022-11-09T02:30:34.925Z,10.73
2022-11-09T02:35:36.975Z,10.75
2022-11-09T02:40:42.893Z,10.77
2022-11-09T02:45:44.664Z,10.74
2022-11-09T02:50:46.430Z,10.74
2022-11-09T02:55:48.159Z,10.75
2022-11-09T03:00:50.067Z,10.71
2022-11-09T03:05:51.805Z,10.75
2022-11-09T03:10:54.157Z,10.73
2022-11-09T03:15:56.113Z,10.70
2022-11-09T03:21:05.078Z,10.74
2022-11-09T03:26:07.153Z,10.65
2022-11-09T03:31:09.939Z,10.65
2022-11-09T03:36:12.269Z,10.63
2022-11-09T03:41:14.030Z,10.60
2022-11-09T03:46:15.797Z,10.59
2022-11-09T03:51:17.399Z,10.61
2022-11-09T03:56:19.057Z,10.59
2022-11-09T04:01:20.828Z,10.61
2022-11-09T04:06:22.474Z,10.60
2022-11-09T04:11:24.323Z,10.68
2022-11-09T04:16:27.197Z,10.64
2022-11-09T04:21:28.873Z,10.54
2022-11-09T04:26:30.441Z,10.45
2022-11-09T04:31:34.415Z,10.31
2022-11-09T04:36:36.106Z,10.25
2022-11-09T04:41:37.866Z,10.17
2022-11-09T04:46:39.461Z,10.12
2022-11-09T04:51:41.194Z,10.12
2022-11-09T04:56:42.821Z,10.13
2022-11-09T05:01:44.442Z,10.16
2022-11-09T05:06:46.340Z,10.13
2022-11-09T05:11:48.031Z,10.15
2022-11-09T05:16:49.625Z,10.11
2022-11-09T05:21:51.275Z,10.07
2022-11-09T05:26:53.767Z,10.09
2022-11-09T05:31:55.454Z,10.07
2022-11-09T05:37:02.278Z,10.06
2022-11-09T05:42:06.792Z,10.06
2022-11-09T05:47:08.422Z,10.00
2022-11-09T05:52:10.116Z,10.05
2022-11-09T05:57:11.854Z,10.05
2022-11-09T06:02:16.254Z,10.07
2022-11-09T06:07:18.042Z,10.03
2022-11-09T06:12:19.780Z,10.01
2022-11-09T06:17:21.416Z,9.98
2022-11-09T06:22:23.345Z,9.97
2022-11-09T06:27:24.963Z,10.01
2022-11-09T06:32:26.660Z,9.97
2022-11-09T06:37:29.474Z,9.96
2022-11-09T06:42:31.156Z,9.93
2022-11-09T06:47:35.551Z,9.94
2022-11-09T06:52:37.234Z,9.94
2022-11-09T06:57:38.985Z,9.92
2022-11-09T07:02:42.547Z,9.94
2022-11-09T07:07:44.531Z,9.91
2022-11-09T07:12:46.411Z,9.94
2022-11-09T07:17:49.081Z,9.99
2022-11-09T07:22:50.975Z,9.98
2022-11-09T07:27:53.052Z,10.00
2022-11-09T07:33:12.576Z,9.99
2022-11-09T07:38:16.084Z,9.98
2022-11-09T07:43:18.694Z,9.99
2022-11-09T07:48:25.998Z,10.04
2022-11-09T07:53:27.661Z,10.11
2022-11-09T07:58:30.345Z,10.12
2022-11-09T08:03:32.011Z,10.14
2022-11-09T08:08:33.883Z,10.15
2022-11-09T08:13:35.615Z,10.21
2022-11-09T08:18:37.312Z,10.29
2022-11-09T08:23:39.163Z,10.36
2022-11-09T08:28:40.897Z,10.43
2022-11-09T08:33:42.557Z,10.42
2022-11-09T08:38:48.592Z,10.49
2022-11-09T08:43:50.364Z,10.55
2022-11-09T08:48:51.967Z,10.57
2022-11-09T08:53:53.611Z,10.63
2022-11-09T08:58:55.241Z,10.68
2022-11-09T09:03:56.851Z,10.74
2022-11-09T09:08:58.564Z,10.76
2022-11-09T09:14:00.247Z,10.84
2022-11-09T09:19:01.907Z,10.91
2022-11-09T09:24:03.908Z,11.05
2022-11-09T09:29:05.630Z,11.15
2022-11-09T09:34:07.828Z,11.16
2022-11-09T09:39:09.489Z,11.11
2022-11-09T09:44:39.523Z,11.11
2022-11-09T09:49:48.581Z,11.02
2022-11-09T09:55:00.084Z,10.98
2022-11-09T10:00:06.157Z,10.86
2022-11-09T10:05:16.027Z,10.77
2022-11-09T10:10:36.441Z,10.73
2022-11-09T10:15:48.581Z,10.76
2022-11-09T10:20:59.110Z,10.73
2022-11-09T10:26:17.972Z,10.76
2022-11-09T10:31:22.815Z,10.73
2022-11-09T10:36:42.333Z,10.83
2022-11-09T10:41:46.889Z,10.82
2022-11-09T10:47:16.867Z,10.83
2022-11-09T10:52:45.980Z,10.84
2022-11-09T10:58:46.232Z,10.89
2022-11-09T11:04:26.950Z,10.83
2022-11-09T11:10:09.073Z,10.68
2022-11-09T11:15:41.278Z,10.56
2022-11-09T11:21:17.471Z,10.58
2022-11-09T11:26:57.251Z,10.52
2022-11-09T11:32:20.073Z,10.51
2022-11-09T11:37:50.256Z,10.59
2022-11-09T11:43:33.008Z,10.68
2022-11-09T11:49:27.347Z,10.80
2022-11-09T11:54:53.762Z,10.84
2022-11-09T12:00:16.659Z,10.88
2022-11-09T12:05:48.809Z,10.95
2022-11-09T12:11:22.432Z,11.00
2022-11-09T12:16:59.865Z,11.11
2022-11-09T12:22:19.933Z,11.26
2022-11-09T12:28:02.613Z,11.29
2022-11-09T12:33:37.354Z,11.20
2022-11-09T12:39:36.499Z,11.19
2022-11-09T12:45:15.291Z,11.04
2022-11-09T12:50:37.147Z,10.96
2022-11-09T12:56:10.684Z,10.87
2022-11-09T13:01:33.699Z,10.84
2022-11-09T13:07:31.398Z,10.76
2022-11-09T13:13:10.703Z,10.74
2022-11-09T13:18:35.289Z,10.98
2022-11-09T13:24:05.857Z,11.04
2022-11-09T13:29:50.007Z,10.96
2022-11-09T13:35:42.301Z,10.93
2022-11-09T13:41:04.618Z,10.96
2022-11-09T13:46:29.533Z,10.99
2022-11-09T13:51:49.841Z,11.07
2022-11-09T13:57:11.283Z,10.70
2022-11-09T14:02:31.742Z,10.67
2022-11-09T14:07:54.318Z,10.74
2022-11-09T14:13:41.005Z,10.72
2022-11-09T14:19:30.916Z,10.73
2022-11-09T14:24:51.567Z,10.78
2022-11-09T14:30:21.586Z,10.81
2022-11-09T14:35:42.137Z,10.76
2022-11-09T14:41:02.772Z,10.84
2022-11-09T14:46:30.885Z,10.73
2022-11-09T14:51:51.112Z,10.73
2022-11-09T14:57:15.386Z,10.77
2022-11-09T15:02:37.393Z,10.84
2022-11-09T15:07:58.688Z,10.91
2022-11-09T15:13:27.970Z,10.96
2022-11-09T15:18:48.410Z,10.95
2022-11-09T15:24:08.453Z,10.96
2022-11-09T15:29:40.331Z,11.00
2022-11-09T15:35:15.339Z,11.01
2022-11-09T15:40:36.367Z,10.98
2022-11-09T15:46:06.717Z,10.95
2022-11-09T15:51:27.325Z,10.95
2022-11-09T15:57:07.036Z,10.99
2022-11-09T16:02:42.046Z,11.00
2022-11-09T16:08:02.737Z,11.00
2022-11-09T16:13:22.819Z,11.01
2022-11-09T16:18:43.640Z,11.00
2022-11-09T16:24:04.019Z,10.98
2022-11-09T16:29:27.814Z,10.95
2022-11-09T16:35:08.460Z,10.96
2022-11-09T16:40:31.794Z,11.01
2022-11-09T16:45:52.128Z,11.06
2022-11-09T16:51:12.479Z,11.07
2022-11-09T16:56:34.652Z,11.05
2022-11-09T17:01:58.051Z,11.05
2022-11-09T17:07:19.021Z,11.10
2022-11-09T17:12:39.011Z,11.16
2022-11-09T17:17:59.394Z,11.14
2022-11-09T17:23:19.794Z,11.14
2022-11-09T17:28:43.197Z,11.14
2022-11-09T17:34:03.622Z,11.17
2022-11-09T17:39:26.027Z,11.15
2022-11-09T17:44:52.428Z,11.18
2022-11-09T17:50:34.665Z,11.16
2022-11-09T18:02:11.691Z,11.16
2022-11-09T18:07:33.166Z,11.17
2022-11-09T18:12:54.594Z,11.20
2022-11-09T18:18:17.748Z,11.15
2022-11-09T18:23:38.444Z,11.18
2022-11-09T18:29:09.906Z,11.17
2022-11-09T18:34:31.200Z,11.15
2022-11-09T18:39:57.934Z,11.17
2022-11-09T18:45:21.981Z,11.19
2022-11-09T18:50:42.296Z,11.19
2022-11-09T18:56:07.212Z,11.25
2022-11-09T19:01:30.452Z,11.19
2022-11-09T19:06:50.892Z,11.20
2022-11-09T19:12:11.149Z,11.21
2022-11-09T19:17:31.404Z,11.21
2022-11-09T19:22:51.715Z,11.24
2022-11-09T19:28:12.150Z,11.26
2022-11-09T19:33:32.272Z,11.27
2022-11-09T19:38:52.492Z,11.23
2022-11-09T19:44:14.516Z,11.20
2022-11-09T19:49:34.814Z,11.17
2022-11-09T19:54:54.969Z,11.17
2022-11-09T20:00:16.066Z,11.19
2022-11-09T20:05:36.489Z,11.16
2022-11-09T20:10:57.001Z,11.18
2022-11-09T20:16:17.706Z,11.17
2022-11-09T20:21:40.209Z,11.19
2022-11-09T20:27:00.269Z,11.19
2022-11-09T20:32:21.700Z,11.24
2022-11-09T20:37:42.224Z,11.21
2022-11-09T20:43:02.567Z,11.20
2022-11-09T20:48:46.976Z,11.24
2022-11-09T20:54:07.317Z,11.18
2022-11-09T20:59:27.503Z,11.15
2022-11-09T21:04:47.598Z,11.14
2022-11-09T21:10:07.978Z,11.14
2022-11-09T21:15:29.492Z,11.11
2022-11-09T21:21:04.733Z,11.10
2022-11-09T21:26:47.876Z,11.13
2022-11-09T21:32:10.348Z,11.12
2022-11-09T21:37:30.561Z,11.07
2022-11-09T21:42:50.946Z,11.12
2022-11-09T21:48:11.245Z,11.10
2022-11-09T21:53:32.692Z,11.12
2022-11-09T21:58:53.308Z,11.09
2022-11-09T22:04:19.327Z,11.12
2022-11-09T22:10:08.149Z,11.11
2022-11-09T22:15:39.407Z,11.09
2022-11-09T22:20:59.717Z,11.06
2022-11-09T22:26:20.639Z,11.05
2022-11-09T22:31:41.098Z,11.10
2022-11-09T22:37:01.563Z,11.13
2022-11-09T22:42:21.828Z,11.16
2022-11-09T22:47:41.810Z,11.17
2022-11-09T22:53:03.954Z,11.24
2022-11-09T22:58:27.693Z,11.19
2022-11-09T23:03:48.115Z,11.19
2022-11-09T23:09:08.200Z,11.23
2022-11-09T23:14:47.157Z,11.20
2022-11-09T23:20:08.444Z,11.20
2022-11-09T23:25:47.148Z,11.19
2022-11-09T23:31:24.318Z,11.19
2022-11-09T23:36:44.501Z,11.16
2022-11-09T23:42:05.726Z,11.20
2022-11-09T23:47:25.983Z,11.14
2022-11-09T23:52:46.036Z,11.10
2022-11-09T23:58:07.305Z,11.13
